Time;durP1;ratioP1;P1;durP2;ratioP2;P2;SDS_P1;SDS_P2;PMS_P1;PMS_P2;Temp;Humidity;BMP_temperature;BMP_pressure;BME280_temperature;BME280_humidity;BME280_pressure;Samples;Min_cycle;Max_cycle;Signal;HPM_P1;HPM_P2
2023/10/24 00:01:19;;;;;;;3.90;2.97;;;12.60;92.00;;;;;;5051760;28;20017;-27
2023/10/24 00:03:44;;;;;;;4.03;2.97;;;12.60;92.00;;;;;;5051518;28;20465;-28
2023/10/24 00:06:10;;;;;;;4.00;3.10;;;12.60;92.00;;;;;;5051428;28;20205;-34
2023/10/24 00:08:36;;;;;;;4.93;3.40;;;12.60;92.00;;;;;;5051788;28;20021;-26
2023/10/24 00:11:03;;;;;;;4.82;3.08;;;12.60;92.00;;;;;;5051268;28;20333;-27
2023/10/24 00:13:29;;;;;;;6.13;3.30;;;12.70;92.00;;;;;;5051463;28;20021;-26
2023/10/24 00:15:54;;;;;;;4.78;3.47;;;12.70;92.00;;;;;;5051372;28;20036;-26
2023/10/24 00:18:20;;;;;;;5.78;3.25;;;12.70;92.00;;;;;;5051349;28;20032;-29
2023/10/24 00:20:45;;;;;;;6.00;3.00;;;12.70;92.00;;;;;;5051277;28;20048;-27
2023/10/24 00:23:12;;;;;;;4.65;2.90;;;12.70;92.00;;;;;;5051316;28;20025;-28
2023/10/24 00:25:37;;;;;;;5.57;3.13;;;12.70;92.00;;;;;;5051669;28;20071;-28
2023/10/24 00:28:03;;;;;;;4.38;3.45;;;12.70;92.10;;;;;;5051531;28;20021;-28
2023/10/24 00:30:28;;;;;;;3.95;3.47;;;12.70;92.10;;;;;;5051214;28;20069;-27
2023/10/24 00:32:54;;;;;;;8.70;3.33;;;12.70;92.00;;;;;;5049919;28;20036;-27
2023/10/24 00:35:20;;;;;;;4.72;3.42;;;12.70;92.10;;;;;;5051152;28;20033;-29
2023/10/24 00:37:45;;;;;;;3.97;3.38;;;12.70;92.10;;;;;;5051156;28;20503;-27
2023/10/24 00:40:11;;;;;;;3.55;3.22;;;12.70;92.10;;;;;;5051215;28;20111;-28
2023/10/24 00:42:37;;;;;;;5.53;4.00;;;12.70;92.00;;;;;;5051016;28;20435;-29
2023/10/24 00:45:02;;;;;;;4.97;3.92;;;12.70;92.10;;;;;;5051108;28;20021;-30
2023/10/24 00:47:28;;;;;;;5.32;3.95;;;12.70;92.10;;;;;;5051290;28;20021;-28
2023/10/24 00:49:54;;;;;;;5.68;3.78;;;12.70;92.10;;;;;;5051142;28;20033;-27
2023/10/24 00:52:20;;;;;;;4.40;3.80;;;12.80;92.10;;;;;;5051267;28;20172;-28
2023/10/24 00:54:46;;;;;;;4.57;3.85;;;12.80;92.10;;;;;;5051263;28;20031;-32
2023/10/24 00:57:13;;;;;;;5.88;4.15;;;12.80;92.10;;;;;;5051009;28;20070;-32
2023/10/24 00:59:40;;;;;;;4.55;4.10;;;12.80;92.10;;;;;;5051377;28;20017;-28
2023/10/24 01:02:07;;;;;;;4.18;3.78;;;12.80;92.20;;;;;;5050742;28;20104;-27
2023/10/24 01:04:34;;;;;;;4.93;3.90;;;12.80;92.10;;;;;;5050796;28;20028;-30
2023/10/24 01:07:00;;;;;;;6.20;4.03;;;12.80;92.40;;;;;;5052123;28;20029;-30
2023/10/24 01:09:25;;;;;;;5.85;4.70;;;12.80;92.10;;;;;;5053503;28;20104;-27
2023/10/24 01:11:53;;;;;;;4.65;3.42;;;12.90;92.10;;;;;;5054505;28;20036;-27
2023/10/24 01:14:19;;;;;;;6.32;3.92;;;12.80;92.30;;;;;;5054491;28;20485;-35
2023/10/24 01:16:45;;;;;;;7.70;4.38;;;12.90;92.10;;;;;;5054345;28;20025;-27
2023/10/24 01:19:12;;;;;;;6.35;5.00;;;12.90;92.10;;;;;;5054247;28;20037;-31
2023/10/24 01:21:43;;;;;;;6.25;5.32;;;12.90;92.20;;;;;;5054384;28;20021;-27
2023/10/24 01:24:10;;;;;;;5.88;5.25;;;12.90;92.20;;;;;;5054259;28;20074;-28
2023/10/24 01:26:37;;;;;;;4.38;3.65;;;12.90;92.20;;;;;;5054515;28;20032;-32
2023/10/24 01:29:02;;;;;;;8.75;5.28;;;12.90;92.20;;;;;;5054346;28;20329;-28
2023/10/24 01:31:28;;;;;;;6.68;5.20;;;12.90;92.20;;;;;;5054056;28;20047;-33
2023/10/24 01:33:54;;;;;;;6.20;5.53;;;12.90;92.20;;;;;;5054333;28;20469;-29
2023/10/24 01:36:19;;;;;;;6.20;5.03;;;12.90;92.20;;;;;;5053954;28;20025;-28
2023/10/24 01:38:45;;;;;;;7.10;4.63;;;12.90;92.20;;;;;;5054432;28;20071;-26
2023/10/24 01:41:10;;;;;;;6.22;4.82;;;12.90;92.20;;;;;;5053717;28;20388;-26
2023/10/24 01:43:36;;;;;;;6.47;4.68;;;12.90;92.20;;;;;;5053891;28;20540;-43
2023/10/24 01:46:02;;;;;;;6.22;4.75;;;12.90;92.20;;;;;;5053816;28;20025;-32
2023/10/24 01:48:27;;;;;;;5.07;4.57;;;12.90;92.20;;;;;;5052525;28;20025;-27
2023/10/24 01:50:53;;;;;;;5.20;4.47;;;13.00;92.20;;;;;;5053964;28;20428;-27
2023/10/24 01:53:19;;;;;;;4.72;4.28;;;12.90;92.20;;;;;;5053673;28;20033;-28
2023/10/24 01:55:44;;;;;;;5.88;4.50;;;12.90;92.20;;;;;;5054018;28;20028;-29
2023/10/24 01:58:10;;;;;;;5.30;4.55;;;12.90;92.20;;;;;;5053904;28;20047;-26
2023/10/24 02:00:35;;;;;;;5.78;4.57;;;13.00;92.20;;;;;;5053614;28;20074;-26
2023/10/24 02:03:01;;;;;;;8.65;4.47;;;13.00;92.30;;;;;;5053309;28;20036;-27
2023/10/24 02:05:27;;;;;;;6.38;4.30;;;13.00;92.20;;;;;;5053757;28;20393;-27
2023/10/24 02:07:52;;;;;;;4.85;4.35;;;13.00;92.20;;;;;;5053783;28;20028;-28
2023/10/24 02:10:18;;;;;;;6.85;4.55;;;13.00;92.20;;;;;;5053824;28;20029;-30
2023/10/24 02:12:45;;;;;;;7.28;4.22;;;13.00;92.20;;;;;;5053385;28;20090;-32
2023/10/24 02:15:11;;;;;;;5.30;3.95;;;13.00;92.20;;;;;;5053261;28;20481;-26
2023/10/24 02:17:36;;;;;;;7.38;4.13;;;12.90;92.10;;;;;;5053013;28;20108;-26
2023/10/24 02:20:02;;;;;;;5.18;4.03;;;13.00;92.20;;;;;;5052342;28;20029;-26
2023/10/24 02:22:27;;;;;;;6.72;3.88;;;12.90;92.10;;;;;;5053133;28;20477;-27
2023/10/24 02:24:53;;;;;;;5.20;3.90;;;13.00;92.10;;;;;;5053254;28;20029;-27
2023/10/24 02:27:19;;;;;;;5.18;3.60;;;13.00;92.10;;;;;;5053290;28;20017;-27
2023/10/24 02:29:44;;;;;;;4.00;3.40;;;12.90;92.10;;;;;;5052846;28;20405;-25
2023/10/24 02:32:10;;;;;;;6.75;3.90;;;13.00;92.10;;;;;;5053185;28;20025;-28
2023/10/24 02:34:35;;;;;;;4.43;3.40;;;12.90;92.10;;;;;;5053235;28;20033;-28
2023/10/24 02:37:01;;;;;;;5.53;3.40;;;13.00;92.10;;;;;;5053126;28;20520;-35
2023/10/24 02:39:27;;;;;;;5.03;3.55;;;12.90;92.00;;;;;;5052587;28;20033;-26
2023/10/24 02:41:52;;;;;;;4.35;3.00;;;12.90;92.30;;;;;;5053035;28;20029;-32
2023/10/24 02:44:20;;;;;;;4.03;2.95;;;12.90;92.00;;;;;;5053149;28;20025;-27
2023/10/24 02:46:46;;;;;;;3.65;3.20;;;12.90;92.00;;;;;;5052482;28;20033;-26
2023/10/24 02:49:11;;;;;;;3.55;2.90;;;12.90;92.00;;;;;;5052913;28;20044;-30
2023/10/24 02:51:37;;;;;;;3.45;2.88;;;12.90;92.00;;;;;;5052715;28;20033;-27
2023/10/24 02:54:02;;;;;;;3.03;2.60;;;12.90;92.00;;;;;;5052723;28;20436;-27
2023/10/24 02:56:28;;;;;;;4.05;2.83;;;12.90;92.00;;;;;;5052793;28;20021;-26
2023/10/24 02:58:53;;;;;;;3.30;2.65;;;12.80;91.90;;;;;;5052426;28;20082;-27
2023/10/24 03:01:19;;;;;;;5.20;2.90;;;12.80;91.90;;;;;;5052649;28;20029;-30
2023/10/24 03:03:45;;;;;;;4.03;2.45;;;12.80;91.90;;;;;;5052502;28;20029;-27
2023/10/24 03:06:18;;;;;;;4.45;2.70;;;12.80;91.80;;;;;;5052593;28;20043;-27
2023/10/24 03:08:43;;;;;;;4.88;2.83;;;12.80;91.80;;;;;;5052611;28;20021;-27
2023/10/24 03:11:09;;;;;;;3.20;2.85;;;12.80;91.80;;;;;;5052880;28;20021;-27
2023/10/24 03:13:35;;;;;;;5.20;2.63;;;12.80;91.80;;;;;;5052221;28;20060;-29
2023/10/24 03:16:05;;;;;;;4.22;3.10;;;12.80;91.80;;;;;;5052357;28;20037;-26
2023/10/24 03:18:32;;;;;;;4.45;3.35;;;12.80;91.80;;;;;;5052196;28;20573;-29
2023/10/24 03:20:59;;;;;;;3.60;2.90;;;12.80;91.80;;;;;;5052021;28;20032;-29
2023/10/24 03:23:24;;;;;;;4.30;3.45;;;12.80;91.80;;;;;;5052049;28;20519;-27
2023/10/24 03:25:50;;;;;;;5.60;3.67;;;12.80;91.70;;;;;;5052053;28;20072;-27
2023/10/24 03:28:17;;;;;;;3.80;3.47;;;12.80;92.00;;;;;;5052103;28;20021;-29
2023/10/24 03:30:43;;;;;;;4.82;3.83;;;12.80;91.80;;;;;;5051776;28;20095;-31
2023/10/24 03:33:09;;;;;;;5.05;4.28;;;12.80;91.70;;;;;;5052240;28;20104;-27
2023/10/24 03:35:35;;;;;;;5.80;4.13;;;12.80;91.70;;;;;;5052059;28;20464;-26
2023/10/24 03:38:03;;;;;;;4.55;3.63;;;12.80;91.70;;;;;;5051848;28;20115;-29
2023/10/24 03:40:29;;;;;;;5.63;3.53;;;12.80;91.70;;;;;;5051972;28;20450;-28
2023/10/24 03:42:55;;;;;;;4.03;3.60;;;12.70;91.70;;;;;;5051717;28;20029;-28
2023/10/24 03:45:21;;;;;;;4.43;3.30;;;12.80;91.70;;;;;;5051686;28;20025;-28
2023/10/24 03:47:48;;;;;;;3.65;3.33;;;12.80;91.70;;;;;;5051519;28;20035;-27
2023/10/24 03:50:15;;;;;;;3.90;3.42;;;12.80;91.70;;;;;;5051574;28;20037;-29
2023/10/24 03:52:40;;;;;;;3.67;3.38;;;12.70;91.60;;;;;;5051693;28;20045;-28
2023/10/24 03:55:06;;;;;;;5.70;4.07;;;12.70;91.60;;;;;;5051852;28;20033;-29
2023/10/24 03:57:31;;;;;;;3.95;3.47;;;12.70;91.60;;;;;;5051662;28;20029;-31
2023/10/24 03:59:57;;;;;;;4.70;3.70;;;12.70;91.60;;;;;;5051570;28;20108;-27
2023/10/24 04:02:23;;;;;;;3.40;3.10;;;12.70;91.60;;;;;;5051420;28;20032;-31
2023/10/24 04:04:48;;;;;;;4.13;3.28;;;12.70;91.60;;;;;;5050340;28;20037;-27
2023/10/24 04:07:14;;;;;;;3.67;3.20;;;12.70;91.60;;;;;;5051427;28;20029;-27
2023/10/24 04:09:40;;;;;;;3.78;3.35;;;12.70;91.60;;;;;;5051869;28;20028;-34
2023/10/24 04:12:06;;;;;;;3.75;3.22;;;12.70;91.50;;;;;;5051790;28;20037;-29
2023/10/24 04:14:31;;;;;;;3.30;3.00;;;12.60;91.50;;;;;;5051583;28;20037;-27
2023/10/24 04:16:57;;;;;;;3.35;2.95;;;12.70;91.50;;;;;;5051232;28;20037;-31
2023/10/24 04:19:23;;;;;;;3.13;2.80;;;12.60;91.50;;;;;;5050646;28;20177;-29
2023/10/24 04:21:49;;;;;;;3.30;2.97;;;12.60;91.50;;;;;;5051062;28;20037;-27
2023/10/24 04:24:14;;;;;;;4.00;3.47;;;12.60;91.50;;;;;;5049961;28;20036;-28
2023/10/24 04:26:40;;;;;;;3.67;3.35;;;12.60;91.40;;;;;;5051590;28;20025;-28
2023/10/24 04:29:05;;;;;;;4.55;2.97;;;12.60;91.40;;;;;;5051222;28;20048;-28
2023/10/24 04:31:31;;;;;;;3.42;3.00;;;12.60;91.40;;;;;;5051629;28;20047;-30
2023/10/24 04:33:56;;;;;;;3.20;2.85;;;12.60;91.40;;;;;;5050344;28;20056;-28
2023/10/24 04:36:22;;;;;;;3.72;3.08;;;12.60;91.40;;;;;;5051295;28;20033;-29
2023/10/24 04:38:47;;;;;;;3.60;2.80;;;12.60;91.30;;;;;;5051125;28;20473;-28
2023/10/24 04:41:13;;;;;;;3.50;3.20;;;12.60;91.30;;;;;;5051131;28;20048;-31
2023/10/24 04:43:39;;;;;;;3.47;3.13;;;12.60;91.30;;;;;;5055139;28;20100;-28
2023/10/24 04:46:04;;;;;;;3.55;3.00;;;12.60;91.30;;;;;;5055055;28;20017;-30
2023/10/24 04:48:30;;;;;;;4.07;3.20;;;12.60;91.30;;;;;;5054019;28;20461;-36
2023/10/24 04:50:55;;;;;;;3.80;3.40;;;12.60;91.30;;;;;;5054941;28;20476;-28
2023/10/24 04:53:21;;;;;;;3.50;3.20;;;12.60;91.20;;;;;;5055013;28;20493;-29
2023/10/24 04:55:46;;;;;;;3.88;3.25;;;12.60;91.20;;;;;;5054783;28;20435;-32
2023/10/24 04:58:13;;;;;;;4.53;3.53;;;12.60;91.20;;;;;;5055040;28;20021;-31
2023/10/24 05:00:39;;;;;;;5.45;3.63;;;12.60;91.20;;;;;;5054741;28;20032;-28
2023/10/24 05:03:05;;;;;;;4.05;3.00;;;12.60;91.20;;;;;;5054625;28;20033;-28
2023/10/24 05:05:30;;;;;;;4.40;3.30;;;12.60;91.20;;;;;;5054538;28;20021;-37
2023/10/24 05:07:56;;;;;;;3.85;3.50;;;12.60;91.20;;;;;;5054601;28;20056;-29
2023/10/24 05:10:21;;;;;;;4.07;3.63;;;12.60;91.20;;;;;;5054759;28;20472;-30
2023/10/24 05:12:47;;;;;;;3.63;3.10;;;12.60;91.10;;;;;;5053087;28;20485;-28
2023/10/24 05:15:12;;;;;;;4.22;3.45;;;12.50;91.10;;;;;;5054420;28;20037;-28
2023/10/24 05:17:38;;;;;;;4.22;3.83;;;12.50;91.10;;;;;;5054075;28;20025;-29
2023/10/24 05:20:07;;;;;;;4.10;3.70;;;12.50;91.00;;;;;;5054502;28;20029;-27
2023/10/24 05:22:33;;;;;;;4.72;3.78;;;12.50;91.00;;;;;;5054233;28;20477;-28
2023/10/24 05:24:59;;;;;;;4.07;3.67;;;12.50;91.30;;;;;;5054402;28;20021;-29
2023/10/24 05:27:26;;;;;;;4.10;3.70;;;12.50;91.00;;;;;;5054221;28;20035;-28
2023/10/24 05:29:52;;;;;;;4.15;3.58;;;12.50;91.00;;;;;;5054637;28;20041;-28
2023/10/24 05:32:17;;;;;;;4.43;3.90;;;12.50;91.10;;;;;;5054497;28;20063;-30
2023/10/24 05:34:43;;;;;;;5.03;4.10;;;12.50;91.10;;;;;;5054131;28;20436;-29
2023/10/24 05:37:09;;;;;;;4.60;4.13;;;12.40;91.00;;;;;;5054138;28;20061;-28
2023/10/24 05:39:34;;;;;;;5.20;4.13;;;12.40;91.00;;;;;;5053859;28;20018;-29
2023/10/24 05:42:00;;;;;;;6.28;4.00;;;12.40;91.00;;;;;;5054451;28;20071;-30
2023/10/24 05:44:26;;;;;;;4.65;3.90;;;12.40;91.00;;;;;;5053810;28;20025;-29
2023/10/24 05:46:52;;;;;;;5.53;4.32;;;12.40;91.00;;;;;;5053758;28;20025;-27
2023/10/24 05:49:17;;;;;;;5.15;3.92;;;12.40;91.00;;;;;;5053816;28;20021;-28
2023/10/24 05:51:43;;;;;;;5.90;4.38;;;12.50;91.00;;;;;;5053789;28;20082;-29
2023/10/24 05:54:09;;;;;;;4.38;3.70;;;12.50;91.00;;;;;;5052597;28;20036;-29
2023/10/24 05:56:34;;;;;;;6.32;4.90;;;12.50;91.00;;;;;;5053667;28;20101;-28
2023/10/24 05:59:00;;;;;;;4.47;4.03;;;12.40;90.90;;;;;;5053952;28;20089;-28
2023/10/24 06:01:25;;;;;;;5.18;4.50;;;12.50;91.00;;;;;;5053530;28;20021;-28
2023/10/24 06:03:51;;;;;;;5.30;4.43;;;12.50;90.90;;;;;;5053807;28;20021;-28
2023/10/24 06:06:17;;;;;;;4.72;4.25;;;12.50;90.90;;;;;;5053420;28;20033;-31
2023/10/24 06:08:44;;;;;;;5.80;4.32;;;12.40;90.90;;;;;;5053592;28;20076;-29
2023/10/24 06:11:10;;;;;;;5.90;4.88;;;12.50;90.90;;;;;;5053551;28;20021;-28
2023/10/24 06:13:36;;;;;;;7.65;4.38;;;12.40;90.80;;;;;;5053542;28;20032;-32
2023/10/24 06:16:11;;;;;;;5.18;4.18;;;12.40;90.80;;;;;;5053229;28;20029;-32
2023/10/24 06:18:37;;;;;;;6.38;4.75;;;12.40;90.80;;;;;;5053205;28;20033;-29
2023/10/24 06:21:07;;;;;;;5.57;4.30;;;12.40;90.80;;;;;;5053163;28;20032;-33
2023/10/24 06:23:34;;;;;;;4.55;4.15;;;12.40;90.80;;;;;;5053153;28;20028;-31
2023/10/24 06:25:59;;;;;;;4.55;4.07;;;12.40;90.80;;;;;;5053158;28;20009;-28
2023/10/24 06:28:25;;;;;;;5.15;4.18;;;12.40;90.70;;;;;;5053030;28;20028;-31
2023/10/24 06:31:00;;;;;;;7.78;4.55;;;12.40;90.80;;;;;;5053000;28;20095;-29
2023/10/24 06:33:27;;;;;;;6.55;4.75;;;12.50;90.80;;;;;;5053256;28;20397;-30
2023/10/24 06:35:54;;;;;;;5.20;4.70;;;12.50;90.80;;;;;;5053092;28;20021;-30
2023/10/24 06:38:20;;;;;;;5.45;4.40;;;12.50;90.70;;;;;;5053361;28;20354;-37
2023/10/24 06:40:46;;;;;;;4.82;4.05;;;12.50;90.70;;;;;;5052960;28;20032;-28
2023/10/24 06:43:12;;;;;;;5.10;4.60;;;12.50;90.70;;;;;;5053233;28;20029;-28
2023/10/24 06:45:38;;;;;;;4.30;3.90;;;12.50;90.70;;;;;;5053895;28;20039;-30
2023/10/24 06:48:06;;;;;;;4.13;3.72;;;12.50;90.70;;;;;;5053975;28;20021;-30
2023/10/24 06:50:32;;;;;;;5.55;4.18;;;12.50;90.70;;;;;;5053965;28;20021;-29
2023/10/24 06:52:58;;;;;;;4.43;3.92;;;12.50;90.70;;;;;;5053757;28;20395;-28
2023/10/24 06:55:24;;;;;;;4.88;4.38;;;12.50;90.70;;;;;;5053769;28;20021;-28
2023/10/24 06:57:50;;;;;;;4.40;3.88;;;12.50;90.60;;;;;;5053756;28;20059;-35
2023/10/24 07:00:16;;;;;;;4.20;3.70;;;12.50;90.60;;;;;;5053629;28;20470;-31
2023/10/24 07:02:41;;;;;;;4.50;3.67;;;12.50;90.60;;;;;;5053916;28;20024;-31
2023/10/24 07:05:07;;;;;;;3.80;3.40;;;12.50;90.50;;;;;;5053369;28;20124;-29
2023/10/24 07:07:33;;;;;;;5.53;3.70;;;12.50;90.50;;;;;;5053803;28;20021;-30
2023/10/24 07:09:58;;;;;;;3.67;3.28;;;12.50;90.50;;;;;;5053532;28;20386;-28
2023/10/24 07:12:24;;;;;;;3.50;3.20;;;12.50;90.50;;;;;;5053480;28;20075;-32
2023/10/24 07:14:53;;;;;;;3.80;3.10;;;12.50;90.40;;;;;;5053487;28;20025;-30
2023/10/24 07:17:19;;;;;;;4.07;3.20;;;12.50;90.40;;;;;;5053183;28;20388;-27
2023/10/24 07:19:45;;;;;;;3.72;3.05;;;12.50;90.40;;;;;;5053310;28;20389;-31
2023/10/24 07:22:11;;;;;;;3.15;2.85;;;12.50;90.40;;;;;;5053564;28;20032;-28
2023/10/24 07:24:36;;;;;;;4.35;3.22;;;12.50;90.40;;;;;;5053168;28;20033;-31
2023/10/24 07:27:03;;;;;;;3.67;3.35;;;12.50;90.40;;;;;;5053259;28;20017;-34
2023/10/24 07:29:29;;;;;;;3.53;3.22;;;12.50;90.40;;;;;;5053111;28;20036;-35
2023/10/24 07:31:54;;;;;;;7.03;3.28;;;12.60;90.40;;;;;;5053199;28;20545;-35
2023/10/24 07:34:20;;;;;;;4.00;3.60;;;12.60;90.40;;;;;;5053064;28;20370;-34
2023/10/24 07:36:45;;;;;;;4.20;3.50;;;12.60;90.40;;;;;;5052744;28;20116;-34
2023/10/24 07:39:14;;;;;;;3.92;3.53;;;12.60;90.30;;;;;;5053147;28;20381;-33
2023/10/24 07:41:40;;;;;;;3.53;3.10;;;12.70;90.30;;;;;;5052951;28;20451;-30
2023/10/24 07:44:05;;;;;;;4.10;3.45;;;12.70;90.30;;;;;;5053004;28;20016;-29
2023/10/24 07:46:31;;;;;;;4.05;3.38;;;12.70;90.20;;;;;;5052670;28;20025;-29
2023/10/24 07:48:57;;;;;;;3.10;2.80;;;12.70;90.20;;;;;;5052958;28;20020;-30
2023/10/24 07:51:27;;;;;;;4.13;3.70;;;12.70;90.20;;;;;;5052839;28;20016;-45
2023/10/24 07:53:53;;;;;;;4.72;2.95;;;12.70;90.10;;;;;;5052778;28;20021;-45
2023/10/24 07:56:18;;;;;;;3.60;3.22;;;12.70;90.10;;;;;;5052563;28;20104;-41
2023/10/24 07:58:44;;;;;;;3.55;2.85;;;12.70;90.10;;;;;;5052785;28;20025;-40
2023/10/24 08:01:09;;;;;;;4.68;3.30;;;12.70;90.10;;;;;;5052926;28;20013;-42
2023/10/24 08:03:35;;;;;;;4.55;2.90;;;12.70;90.00;;;;;;5052704;28;20033;-39
2023/10/24 08:06:01;;;;;;;3.92;3.15;;;12.70;90.00;;;;;;5052744;28;20021;-43
2023/10/24 08:08:27;;;;;;;4.38;3.25;;;12.70;90.00;;;;;;5052639;28;20533;-41
2023/10/24 08:10:53;;;;;;;3.72;2.80;;;12.70;90.00;;;;;;5052788;28;20025;-42
2023/10/24 08:13:18;;;;;;;4.65;3.40;;;12.70;90.00;;;;;;5052613;28;20393;-42
2023/10/24 08:15:48;;;;;;;3.60;3.28;;;12.70;90.00;;;;;;5052466;28;20052;-43
2023/10/24 08:18:13;;;;;;;4.03;3.45;;;12.70;90.00;;;;;;5056018;28;20024;-43
2023/10/24 08:20:39;;;;;;;5.82;3.20;;;12.70;90.00;;;;;;5056598;28;20524;-40
2023/10/24 08:23:04;;;;;;;5.43;4.18;;;12.70;90.00;;;;;;5056660;28;20017;-41
2023/10/24 08:25:31;;;;;;;5.05;3.97;;;12.70;90.00;;;;;;5056481;28;20051;-43
2023/10/24 08:27:56;;;;;;;4.60;4.03;;;12.80;89.90;;;;;;5056580;28;20025;-41
2023/10/24 08:30:22;;;;;;;5.22;4.13;;;12.80;89.90;;;;;;5056324;28;20053;-41
2023/10/24 08:32:47;;;;;;;5.18;3.70;;;12.90;89.90;;;;;;5056448;28;20427;-43
2023/10/24 08:35:13;;;;;;;5.03;4.03;;;12.90;89.90;;;;;;5056541;28;20041;-40
2023/10/24 08:37:38;;;;;;;3.92;3.25;;;12.90;89.80;;;;;;5056266;28;20036;-34
2023/10/24 08:40:05;;;;;;;4.53;4.00;;;13.00;89.80;;;;;;5056347;28;20032;-33
2023/10/24 08:42:32;;;;;;;4.57;3.75;;;13.10;89.70;;;;;;5056214;28;20078;-34
2023/10/24 08:44:59;;;;;;;5.20;3.92;;;13.10;89.50;;;;;;5055817;28;20465;-33
2023/10/24 08:47:27;;;;;;;4.60;3.92;;;13.20;89.40;;;;;;5054837;28;20025;-32
2023/10/24 08:49:54;;;;;;;4.60;3.78;;;13.30;89.40;;;;;;5055290;28;20021;-33
2023/10/24 08:52:20;;;;;;;5.35;3.83;;;13.30;89.10;;;;;;5055275;28;20033;-34
2023/10/24 08:54:45;;;;;;;5.95;4.35;;;13.40;89.10;;;;;;5055101;28;20036;-35
2023/10/24 08:57:13;;;;;;;5.88;3.88;;;13.40;88.80;;;;;;5054897;28;20037;-34
2023/10/24 08:59:40;;;;;;;4.60;3.80;;;13.50;88.70;;;;;;5054833;28;20127;-34
2023/10/24 09:02:10;;;;;;;4.85;3.53;;;13.60;88.70;;;;;;5054790;28;20277;-34
2023/10/24 09:04:38;;;;;;;4.30;3.80;;;13.60;88.60;;;;;;5053716;28;20013;-34
2023/10/24 09:07:04;;;;;;;4.40;3.92;;;13.70;88.50;;;;;;5054952;28;20025;-32
2023/10/24 09:09:29;;;;;;;4.82;4.30;;;13.80;88.40;;;;;;5053364;28;20071;-34
2023/10/24 09:11:58;;;;;;;5.03;4.05;;;13.80;88.30;;;;;;5053170;28;20029;-35
2023/10/24 09:14:29;;;;;;;4.35;3.92;;;13.80;88.90;;;;;;5054627;28;20381;-35
2023/10/24 09:17:06;;;;;;;5.40;4.30;;;13.90;88.10;;;;;;5054610;28;20032;-34
2023/10/24 09:19:32;;;;;;;4.50;4.03;;;13.90;87.80;;;;;;5054517;28;20060;-33
2023/10/24 09:21:59;;;;;;;5.00;4.38;;;13.90;87.80;;;;;;5054448;28;20022;-33
2023/10/24 09:24:25;;;;;;;5.68;4.32;;;13.90;87.70;;;;;;5054152;28;20048;-33
2023/10/24 09:26:55;;;;;;;5.40;4.45;;;13.90;88.40;;;;;;5054132;28;20099;-34
2023/10/24 09:29:24;;;;;;;4.80;4.10;;;13.90;87.70;;;;;;5053920;28;20053;-34
2023/10/24 09:31:50;;;;;;;5.15;4.25;;;13.90;87.70;;;;;;5054317;28;20463;-33
2023/10/24 09:34:16;;;;;;;5.80;4.38;;;13.90;87.70;;;;;;5053893;28;20155;-33
2023/10/24 09:36:42;;;;;;;4.80;4.20;;;13.90;87.70;;;;;;5054054;28;20046;-33
2023/10/24 09:39:15;;;;;;;4.30;3.67;;;13.90;87.80;;;;;;5054152;28;20552;-33
2023/10/24 09:41:41;;;;;;;5.00;4.10;;;13.90;87.70;;;;;;5053868;28;20469;-33
2023/10/24 09:44:07;;;;;;;4.95;4.45;;;13.90;87.70;;;;;;5054073;28;20017;-32
2023/10/24 09:46:35;;;;;;;4.72;4.00;;;14.00;87.60;;;;;;5054006;28;20037;-33
2023/10/24 09:49:01;;;;;;;9.18;6.63;;;14.00;87.60;;;;;;5053986;28;20365;-33
2023/10/24 09:51:28;;;;;;;5.60;4.80;;;14.10;87.40;;;;;;5053639;28;20025;-32
2023/10/24 09:53:53;;;;;;;5.93;4.70;;;14.10;87.30;;;;;;5053930;28;20025;-34
2023/10/24 09:56:20;;;;;;;5.93;5.15;;;14.20;87.20;;;;;;5053372;28;20413;-34
2023/10/24 09:58:46;;;;;;;5.57;4.88;;;14.30;87.10;;;;;;5053196;28;20044;-32
2023/10/24 10:01:12;;;;;;;5.90;4.57;;;14.40;86.90;;;;;;5053137;28;20021;-33
2023/10/24 10:03:38;;;;;;;5.63;4.38;;;14.50;86.70;;;;;;5052869;28;20083;-32
2023/10/24 10:06:06;;;;;;;4.50;3.88;;;14.60;86.50;;;;;;5051486;28;20021;-33
2023/10/24 10:08:41;;;;;;;4.07;3.47;;;14.70;86.40;;;;;;5052837;28;20025;-34
2023/10/24 10:11:07;;;;;;;4.55;3.10;;;14.70;86.20;;;;;;5052685;28;20445;-34
2023/10/24 10:13:48;;;;;;;3.90;3.45;;;14.80;86.10;;;;;;5053059;28;20389;-32
2023/10/24 10:16:50;;;;;;;4.78;3.20;;;14.80;85.70;;;;;;5052845;28;20035;-33
2023/10/24 10:19:37;;;;;;;3.78;3.20;;;14.80;85.60;;;;;;5052977;28;20029;-34
2023/10/24 10:22:37;;;;;;;5.82;3.30;;;14.80;85.50;;;;;;5053005;28;20029;-35
2023/10/24 10:25:49;;;;;;;3.70;3.30;;;14.80;85.50;;;;;;5053376;28;20515;-35
2023/10/24 10:28:15;;;;;;;4.15;2.90;;;14.70;85.20;;;;;;5053198;28;20017;-34
2023/10/24 10:30:53;;;;;;;3.35;2.88;;;14.60;85.50;;;;;;5052767;28;20068;-34
2023/10/24 10:33:21;;;;;;;3.70;2.88;;;14.60;85.40;;;;;;5052874;28;20077;-34
2023/10/24 10:35:48;;;;;;;5.68;3.13;;;14.50;85.30;;;;;;5052584;28;20033;-34
2023/10/24 10:38:44;;;;;;;3.72;3.10;;;14.50;85.30;;;;;;5052745;28;20036;-34
2023/10/24 10:41:22;;;;;;;4.22;2.83;;;14.50;85.20;;;;;;5052327;28;20060;-35
2023/10/24 10:43:53;;;;;;;4.65;2.80;;;14.60;85.20;;;;;;5052887;28;20033;-35
2023/10/24 10:46:20;;;;;;;3.70;2.75;;;14.70;85.20;;;;;;5052381;28;20570;-34
2023/10/24 10:48:50;;;;;;;3.90;2.70;;;14.70;85.00;;;;;;5052546;28;20095;-33
2023/10/24 10:51:20;;;;;;;4.80;3.72;;;14.80;84.80;;;;;;5052780;28;20044;-33
2023/10/24 10:53:53;;;;;;;3.53;3.20;;;14.80;84.30;;;;;;5052420;28;20028;-35
2023/10/24 10:56:22;;;;;;;;;;;14.80;84.40;;;;;;5052826;28;20437;-35
2023/10/24 10:59:17;;;;;;;4.20;2.72;;;14.80;84.50;;;;;;5052417;28;19908;-34
2023/10/24 11:02:16;;;;;;;2.88;2.47;;;14.80;84.50;;;;;;5042973;28;20321;-35
2023/10/24 11:04:42;;;;;;;2.83;2.60;;;14.80;84.50;;;;;;5052423;28;20052;-35
2023/10/24 11:07:09;;;;;;;2.95;2.65;;;14.90;84.60;;;;;;5051965;28;20079;-34
2023/10/24 11:09:35;;;;;;;3.80;2.90;;;14.80;84.50;;;;;;5052209;28;20021;-34
2023/10/24 11:12:27;;;;;;;4.55;3.08;;;14.90;84.30;;;;;;5051993;28;20108;-35
2023/10/24 11:15:13;;;;;;;6.53;3.10;;;14.90;84.10;;;;;;5052303;28;20029;-34
2023/10/24 11:17:39;;;;;;;3.00;2.70;;;14.90;84.00;;;;;;5051656;28;20032;-28
2023/10/24 11:20:08;;;;;;;3.60;2.90;;;14.90;84.10;;;;;;5051977;28;20051;-28
2023/10/24 11:22:35;;;;;;;4.57;2.95;;;14.90;84.00;;;;;;5052189;28;20473;-36
2023/10/24 11:25:07;;;;;;;5.43;3.50;;;14.90;83.90;;;;;;5051917;28;20021;-27
2023/10/24 11:27:33;;;;;;;3.08;2.78;;;14.90;83.90;;;;;;5051854;28;20111;-27
2023/10/24 11:29:59;;;;;;;3.08;2.72;;;14.90;84.00;;;;;;5051807;28;20120;-28
2023/10/24 11:32:25;;;;;;;3.90;3.25;;;14.90;83.90;;;;;;5052162;28;20429;-29
2023/10/24 11:34:50;;;;;;;3.75;3.03;;;14.90;84.00;;;;;;5050720;28;20113;-28
2023/10/24 11:37:16;;;;;;;3.28;2.95;;;14.90;84.00;;;;;;5051716;28;20036;-43
2023/10/24 11:39:42;;;;;;;3.90;3.10;;;14.90;84.00;;;;;;5051682;28;20021;-43
2023/10/24 11:42:07;;;;;;;5.47;3.50;;;14.90;83.90;;;;;;5051439;28;20020;-40
2023/10/24 11:44:33;;;;;;;4.60;3.20;;;14.90;83.90;;;;;;5051612;28;20415;-41
2023/10/24 11:46:59;;;;;;;2.95;2.58;;;14.80;84.00;;;;;;5051190;28;20099;-43
2023/10/24 11:49:36;;;;;;;4.30;3.25;;;14.80;84.10;;;;;;5051815;28;20036;-43
2023/10/24 11:52:04;;;;;;;4.72;3.33;;;14.80;83.90;;;;;;5050884;28;20443;-43
2023/10/24 11:54:29;;;;;;;3.50;3.08;;;14.70;84.00;;;;;;5051469;28;20037;-44
2023/10/24 11:56:56;;;;;;;3.70;2.78;;;14.70;84.10;;;;;;5051381;28;20389;-41
2023/10/24 11:59:22;;;;;;;3.58;3.20;;;14.70;84.20;;;;;;5051717;28;20504;-44
2023/10/24 12:01:47;;;;;;;4.78;2.85;;;14.60;84.20;;;;;;5051248;28;20048;-43
2023/10/24 12:04:13;;;;;;;3.88;2.80;;;14.50;84.30;;;;;;5051367;28;20385;-42
2023/10/24 12:06:39;;;;;;;5.18;3.45;;;14.50;84.50;;;;;;5051507;28;20025;-44
2023/10/24 12:09:06;;;;;;;3.85;2.75;;;14.50;84.50;;;;;;5051419;28;20369;-43
2023/10/24 12:11:35;;;;;;;3.05;2.65;;;14.50;84.50;;;;;;5051535;28;20357;-43
2023/10/24 12:14:02;;;;;;;2.90;2.60;;;14.40;84.60;;;;;;5051726;28;20029;-44
2023/10/24 12:16:31;;;;;;;3.47;2.50;;;14.40;84.70;;;;;;5050960;28;20017;-34
2023/10/24 12:18:57;;;;;;;3.03;2.72;;;14.40;84.80;;;;;;5049928;28;20496;-35
2023/10/24 12:21:23;;;;;;;3.13;2.40;;;14.40;84.90;;;;;;5051395;28;20029;-35
2023/10/24 12:23:49;;;;;;;3.55;2.85;;;14.40;84.90;;;;;;5051330;28;20083;-34
2023/10/24 12:26:15;;;;;;;3.47;2.53;;;14.30;85.10;;;;;;5051042;28;20093;-34
2023/10/24 12:28:43;;;;;;;3.55;2.50;;;14.30;85.30;;;;;;5051259;28;20021;-35
2023/10/24 12:31:10;;;;;;;2.67;2.40;;;14.40;85.50;;;;;;5051097;28;20025;-34
2023/10/24 12:33:36;;;;;;;3.90;2.60;;;14.50;85.30;;;;;;5051512;28;20064;-36
2023/10/24 12:36:03;;;;;;;3.75;2.55;;;14.60;85.30;;;;;;5051106;28;20068;-35
2023/10/24 12:38:29;;;;;;;3.40;2.42;;;14.60;85.20;;;;;;5049767;28;20025;-35
2023/10/24 12:40:55;;;;;;;2.47;2.28;;;14.60;85.20;;;;;;5051226;28;20025;-35
2023/10/24 12:43:20;;;;;;;4.32;2.38;;;14.50;85.30;;;;;;5051023;28;20570;-35
2023/10/24 12:45:46;;;;;;;3.38;2.10;;;14.40;85.50;;;;;;5051286;28;20041;-34
2023/10/24 12:48:13;;;;;;;2.60;2.03;;;14.40;85.60;;;;;;5051330;28;20125;-35